Time;durP1;ratioP1;P1;durP2;ratioP2;P2;SDS_P1;SDS_P2;PMS_P1;PMS_P2;Temp;Humidity;BMP_temperature;BMP_pressure;BME280_temperature;BME280_humidity;BME280_pressure;Samples;Min_cycle;Max_cycle;Signal;HPM_P1;HPM_P2
2023/04/02 00:01:31;;;;;;;7.68;2.58;;;6.30;99.90;;;;;;5160223;27;20054;-76
2023/04/02 00:04:02;;;;;;;8.43;3.22;;;6.10;99.90;;;;;;5159438;27;20030;-76
2023/04/02 00:06:29;;;;;;;8.05;3.20;;;6.10;99.90;;;;;;5160429;27;20131;-75
2023/04/02 00:08:58;;;;;;;8.68;2.83;;;6.20;99.90;;;;;;5160566;27;20098;-76
2023/04/02 00:11:33;;;;;;;8.90;2.85;;;6.20;99.90;;;;;;5160550;27;20035;-76
2023/04/02 00:14:15;;;;;;;6.45;2.92;;;6.10;99.90;;;;;;5141971;27;20479;-76
2023/04/02 00:16:41;;;;;;;7.60;2.75;;;5.90;99.90;;;;;;5160558;27;20424;-76
2023/04/02 00:19:13;;;;;;;10.55;3.10;;;5.90;99.90;;;;;;5160532;27;20167;-76
2023/04/02 00:21:43;;;;;;;10.32;3.22;;;5.80;99.90;;;;;;5160251;27;20424;-75
2023/04/02 00:24:20;;;;;;;5.00;2.70;;;5.80;99.90;;;;;;5160292;27;20039;-76
2023/04/02 00:26:52;;;;;;;8.48;2.67;;;5.70;99.90;;;;;;5160346;27;20038;-76
2023/04/02 00:29:19;;;;;;;7.70;2.90;;;5.50;99.90;;;;;;5159750;27;20415;-76
2023/04/02 00:31:48;;;;;;;9.52;2.95;;;5.60;99.90;;;;;;5159903;27;20357;-77
2023/04/02 00:34:21;;;;;;;9.85;2.78;;;5.40;99.90;;;;;;5160084;27;20122;-76
2023/04/02 00:36:48;;;;;;;5.88;2.72;;;5.50;99.90;;;;;;5160247;27;20038;-75
2023/04/02 00:39:19;;;;;;;8.88;2.67;;;5.50;99.90;;;;;;5159987;27;20217;-76
2023/04/02 00:41:47;;;;;;;10.35;2.90;;;5.50;99.90;;;;;;5160264;27;20049;-76
2023/04/02 00:44:20;;;;;;;5.97;2.65;;;5.40;99.90;;;;;;5159967;27;20042;-76
2023/04/02 00:46:48;;;;;;;7.82;2.30;;;5.50;99.90;;;;;;5159753;27;20423;-76
2023/04/02 00:49:38;;;;;;;11.45;3.17;;;5.30;99.90;;;;;;5159970;27;20034;-75
2023/04/02 00:52:26;;;;;;;12.60;3.03;;;5.40;99.90;;;;;;5160058;27;20207;-76
2023/04/02 00:55:06;;;;;;;9.55;2.88;;;5.20;99.90;;;;;;5159909;27;20047;-76
2023/04/02 00:57:32;;;;;;;5.32;2.65;;;5.30;99.90;;;;;;5159936;27;20045;-75
2023/04/02 01:00:18;;;;;;;7.75;2.45;;;5.30;99.90;;;;;;5159594;27;20058;-75
2023/04/02 01:03:16;;;;;;;6.38;2.55;;;5.30;99.90;;;;;;5159587;27;20114;-76
2023/04/02 01:05:44;;;;;;;9.40;2.67;;;5.10;99.90;;;;;;5159686;27;20083;-76
2023/04/02 01:09:00;;;;;;;7.15;2.55;;;5.10;99.90;;;;;;5159488;27;20035;-76
2023/04/02 01:11:47;;;;;;;9.48;2.58;;;5.20;99.90;;;;;;5115369;27;20099;-76
2023/04/02 01:14:36;;;;;;;9.25;2.88;;;5.20;99.90;;;;;;5159471;27;20039;-76
2023/04/02 01:17:29;;;;;;;11.43;3.03;;;5.30;99.90;;;;;;5159227;27;20042;-76
2023/04/02 01:20:21;;;;;;;6.45;2.10;;;5.20;99.90;;;;;;5159288;27;20187;-76
2023/04/02 01:23:13;;;;;;;10.68;2.60;;;5.20;99.90;;;;;;5159146;27;20117;-76
2023/04/02 01:26:16;;;;;;;5.70;2.42;;;5.20;99.90;;;;;;5113770;27;20042;-76
2023/04/02 01:29:05;;;;;;;7.65;2.45;;;5.10;99.90;;;;;;5159167;27;20031;-76
2023/04/02 01:31:32;;;;;;;8.60;2.63;;;5.00;99.90;;;;;;5159226;27;20086;-76
2023/04/02 01:33:59;;;;;;;7.13;2.08;;;4.80;99.90;;;;;;5158493;27;20427;-77
2023/04/02 01:36:43;;;;;;;4.82;2.25;;;4.80;99.90;;;;;;5140727;27;20054;-76
2023/04/02 01:39:26;;;;;;;13.30;2.95;;;4.80;99.90;;;;;;5158913;27;20051;-76
2023/04/02 01:42:10;;;;;;;7.80;2.25;;;4.90;99.90;;;;;;5159183;27;20031;-76
2023/04/02 01:44:41;;;;;;;4.47;2.13;;;4.90;99.90;;;;;;5159086;27;20087;-76
2023/04/02 01:47:13;;;;;;;7.75;2.13;;;4.90;99.90;;;;;;5158767;27;20114;-76
2023/04/02 01:49:41;;;;;;;7.80;2.20;;;4.80;99.90;;;;;;5141443;27;20195;-76
2023/04/02 01:52:07;;;;;;;8.43;2.00;;;4.70;99.90;;;;;;5159036;27;20027;-76
2023/04/02 01:54:36;;;;;;;10.00;1.85;;;4.60;99.90;;;;;;5159602;27;20070;-76
2023/04/02 01:57:03;;;;;;;9.88;1.95;;;4.50;99.90;;;;;;5141176;27;20039;-76
2023/04/02 01:59:32;;;;;;;4.88;1.80;;;4.50;99.90;;;;;;5158544;27;20049;-75
2023/04/02 02:02:06;;;;;;;6.63;1.80;;;4.50;99.90;;;;;;5158571;27;20335;-76
2023/04/02 02:04:32;;;;;;;13.15;2.40;;;4.50;99.90;;;;;;5150788;27;20030;-76
2023/04/02 02:07:00;;;;;;;5.82;1.63;;;4.30;99.90;;;;;;5157228;27;20105;-77
2023/04/02 02:09:34;;;;;;;7.72;1.75;;;4.40;99.90;;;;;;5158791;27;20049;-76
2023/04/02 02:12:02;;;;;;;7.93;1.58;;;4.40;99.90;;;;;;5158563;27;20047;-76
2023/04/02 02:14:29;;;;;;;7.40;1.60;;;4.30;99.90;;;;;;5158796;27;20070;-76
2023/04/02 02:17:00;;;;;;;7.03;1.70;;;4.50;99.90;;;;;;5158589;27;20038;-76
2023/04/02 02:19:32;;;;;;;8.00;2.20;;;4.50;99.90;;;;;;5158418;27;20442;-77
2023/04/02 02:22:26;;;;;;;8.93;2.05;;;4.50;99.90;;;;;;5158681;27;20039;-77
2023/04/02 02:24:52;;;;;;;6.30;1.55;;;4.60;99.90;;;;;;5158278;27;20039;-77
2023/04/02 02:27:21;;;;;;;4.43;1.27;;;4.50;99.90;;;;;;5160836;27;20030;-77
2023/04/02 02:29:57;;;;;;;4.57;1.15;;;4.40;99.90;;;;;;5162921;27;20035;-76
2023/04/02 02:32:28;;;;;;;9.48;1.90;;;4.50;99.90;;;;;;5162551;27;20331;-76
2023/04/02 02:35:05;;;;;;;6.68;1.40;;;4.50;99.90;;;;;;5162879;27;20031;-76
2023/04/02 02:37:39;;;;;;;5.68;1.58;;;4.30;99.90;;;;;;5144681;27;20119;-76
2023/04/02 02:40:10;;;;;;;5.57;1.48;;;4.40;99.90;;;;;;5162538;27;20039;-76
2023/04/02 02:42:41;;;;;;;7.65;1.50;;;4.30;99.90;;;;;;5162426;27;20031;-76
2023/04/02 02:45:21;;;;;;;5.90;1.60;;;4.30;99.90;;;;;;5162250;27;20381;-76
2023/04/02 02:47:48;;;;;;;6.22;1.60;;;4.30;99.90;;;;;;5162305;27;20068;-76
2023/04/02 02:50:20;;;;;;;4.85;1.20;;;4.30;99.90;;;;;;5161954;27;20074;-76
2023/04/02 02:52:52;;;;;;;5.45;1.38;;;4.20;99.90;;;;;;5161903;27;20039;-77
2023/04/02 02:55:23;;;;;;;3.10;1.13;;;4.30;99.90;;;;;;5162127;27;20045;-76
2023/04/02 02:58:22;;;;;;;7.05;1.45;;;4.20;99.90;;;;;;5162037;27;20045;-76
2023/04/02 03:00:49;;;;;;;7.10;1.20;;;4.20;99.90;;;;;;5143364;27;20047;-76
2023/04/02 03:03:22;;;;;;;3.40;1.48;;;4.20;99.90;;;;;;5161494;27;20118;-77
2023/04/02 03:06:08;;;;;;;4.82;1.60;;;4.10;99.90;;;;;;5161892;27;20035;-76
2023/04/02 03:08:39;;;;;;;5.45;1.40;;;4.10;99.90;;;;;;5161869;27;20104;-76
2023/04/02 03:11:32;;;;;;;6.10;1.20;;;4.00;99.90;;;;;;5143410;27;20089;-76
2023/04/02 03:14:09;;;;;;;6.63;1.27;;;4.10;99.90;;;;;;5161724;27;20121;-76
2023/04/02 03:16:45;;;;;;;10.88;1.52;;;4.10;99.90;;;;;;5161813;27;20039;-76
2023/04/02 03:19:27;;;;;;;8.57;1.50;;;4.00;99.90;;;;;;5161915;27;20031;-76
2023/04/02 03:22:12;;;;;;;2.83;0.85;;;3.90;99.90;;;;;;5161661;27;20468;-76
2023/04/02 03:25:00;;;;;;;4.65;1.25;;;3.90;99.90;;;;;;5161779;27;20045;-76
2023/04/02 03:27:35;;;;;;;4.80;1.48;;;3.90;99.90;;;;;;5161623;27;20035;-76
2023/04/02 03:30:32;;;;;;;5.10;1.40;;;4.00;99.90;;;;;;5161670;27;20039;-76
2023/04/02 03:33:03;;;;;;;6.05;1.80;;;4.00;99.90;;;;;;5142468;27;20127;-76
2023/04/02 03:35:41;;;;;;;5.43;1.55;;;3.80;99.90;;;;;;5161530;27;20077;-77
2023/04/02 03:38:15;;;;;;;6.25;1.42;;;3.80;99.90;;;;;;5160551;27;20049;-77
2023/04/02 03:40:47;;;;;;;7.65;1.42;;;3.80;99.90;;;;;;5142790;27;20035;-76
2023/04/02 03:43:17;;;;;;;5.90;1.35;;;3.80;99.90;;;;;;5161626;27;20035;-76
2023/04/02 03:45:48;;;;;;;3.38;1.40;;;3.70;99.90;;;;;;5161379;27;20038;-76
2023/04/02 03:48:22;;;;;;;8.32;1.48;;;3.80;99.90;;;;;;5160924;27;20504;-76
2023/04/02 03:51:30;;;;;;;9.23;1.00;;;3.90;99.90;;;;;;5142744;27;20045;-76
2023/04/02 03:53:56;;;;;;;3.97;1.23;;;3.90;99.90;;;;;;5057589;28;20079;-77
2023/04/02 03:56:43;;;;;;;4.78;1.60;;;3.80;99.90;;;;;;5057431;28;20033;-76
2023/04/02 03:59:35;;;;;;;5.03;1.08;;;3.90;99.90;;;;;;5120683;27;20057;-77
2023/04/02 04:02:09;;;;;;;9.48;1.63;;;3.90;99.90;;;;;;5120911;27;20384;-77
2023/04/02 04:04:39;;;;;;;6.00;1.25;;;3.90;99.90;;;;;;5161189;27;20042;-77
2023/04/02 04:07:14;;;;;;;6.93;1.10;;;4.00;99.90;;;;;;5160740;27;20088;-77
2023/04/02 04:09:44;;;;;;;8.73;1.23;;;3.90;99.90;;;;;;5161011;27;20389;-77
2023/04/02 04:12:30;;;;;;;6.82;1.70;;;4.00;99.90;;;;;;5161024;27;20043;-77
2023/04/02 04:15:27;;;;;;;5.47;1.20;;;3.90;99.90;;;;;;5160684;27;20065;-77
2023/04/02 04:18:23;;;;;;;3.85;1.58;;;3.90;99.90;;;;;;5155069;27;20050;-77
2023/04/02 04:21:28;;;;;;;7.25;1.13;;;3.80;99.90;;;;;;5160112;27;20339;-77
2023/04/02 04:23:55;;;;;;;4.65;1.00;;;3.80;99.90;;;;;;5158569;27;20309;-77
2023/04/02 04:26:33;;;;;;;8.63;1.48;;;3.90;99.90;;;;;;5159783;27;20446;-77
2023/04/02 04:29:33;;;;;;;9.57;1.40;;;3.90;99.90;;;;;;5160178;27;20368;-77
2023/04/02 04:32:26;;;;;;;5.40;0.90;;;3.90;99.90;;;;;;5159836;27;20491;-77
2023/04/02 04:35:07;;;;;;;8.85;1.70;;;3.80;99.90;;;;;;5160175;27;20114;-77
2023/04/02 04:37:38;;;;;;;8.15;1.33;;;3.90;99.90;;;;;;5160216;27;20113;-77
2023/04/02 04:40:21;;;;;;;4.93;1.05;;;4.00;99.90;;;;;;5159974;27;20072;-76
2023/04/02 04:42:50;;;;;;;10.63;2.00;;;4.10;99.90;;;;;;5142017;27;20349;-76
2023/04/02 04:45:49;;;;;;;8.43;1.63;;;4.20;99.90;;;;;;5159994;27;20088;-76
2023/04/02 04:48:26;;;;;;;9.57;1.17;;;4.10;99.90;;;;;;5159963;27;20034;-76
2023/04/02 04:50:57;;;;;;;7.20;1.15;;;4.10;99.90;;;;;;5159555;27;20443;-76
2023/04/02 04:53:26;;;;;;;8.93;1.45;;;4.00;99.90;;;;;;5141601;27;20054;-76
2023/04/02 04:56:11;;;;;;;5.50;1.02;;;3.90;99.90;;;;;;5159788;27;20046;-77
2023/04/02 04:59:02;;;;;;;6.40;1.42;;;3.90;99.90;;;;;;5159762;27;20080;-76
2023/04/02 05:02:00;;;;;;;9.25;1.15;;;3.90;99.90;;;;;;5159324;27;20134;-77
2023/04/02 05:04:34;;;;;;;6.50;1.27;;;3.90;99.90;;;;;;5096939;27;20111;-76
2023/04/02 05:07:09;;;;;;;7.47;1.20;;;3.80;99.90;;;;;;5159773;27;20034;-76
2023/04/02 05:09:52;;;;;;;8.77;1.35;;;3.80;99.90;;;;;;5141428;27;20450;-76
2023/04/02 05:12:39;;;;;;;6.45;1.30;;;3.90;99.90;;;;;;5159686;27;20058;-76
2023/04/02 05:15:14;;;;;;;;;;;3.80;99.90;;;;;;5159692;27;20039;-77
2023/04/02 05:17:58;;;;;;;8.25;1.00;;;3.80;99.90;;;;;;5158814;27;20355;-76
2023/04/02 05:20:36;;;;;;;6.25;1.67;;;3.90;99.90;;;;;;5159073;27;20045;-76
2023/04/02 05:23:11;;;;;;;5.82;1.20;;;3.80;99.90;;;;;;5160081;27;20167;-76
2023/04/02 05:25:48;;;;;;;6.25;1.67;;;3.80;99.90;;;;;;5159716;27;20308;-76
2023/04/02 05:28:41;;;;;;;6.53;0.90;;;3.80;99.90;;;;;;5158974;27;20039;-76
2023/04/02 05:31:21;;;;;;;9.75;1.17;;;3.70;99.90;;;;;;5158857;27;20039;-76
2023/04/02 05:33:47;;;;;;;8.40;1.25;;;3.80;99.90;;;;;;5140516;27;20324;-76
2023/04/02 05:36:23;;;;;;;6.00;1.27;;;3.90;99.90;;;;;;5159484;27;20034;-76
2023/04/02 05:38:50;;;;;;;5.13;0.98;;;3.90;99.90;;;;;;5159334;27;20030;-76
2023/04/02 05:41:31;;;;;;;7.00;1.30;;;3.90;99.90;;;;;;5159375;27;20117;-76
2023/04/02 05:44:18;;;;;;;8.98;1.13;;;3.70;99.90;;;;;;5159435;27;20091;-76
2023/04/02 05:46:56;;;;;;;7.50;1.10;;;3.90;99.90;;;;;;5158991;27;20136;-76
2023/04/02 05:49:38;;;;;;;5.43;1.35;;;4.00;99.90;;;;;;5159214;27;20034;-76
2023/04/02 05:52:08;;;;;;;7.10;0.95;;;4.00;99.90;;;;;;5159080;27;20092;-76
2023/04/02 05:55:07;;;;;;;7.00;1.15;;;4.10;99.90;;;;;;5123368;27;20436;-76
2023/04/02 05:57:40;;;;;;;5.90;1.45;;;4.10;99.90;;;;;;5067554;27;20342;-76
2023/04/02 06:00:35;;;;;;;6.82;0.90;;;4.10;99.90;;;;;;5158762;27;20046;-76
2023/04/02 06:03:09;;;;;;;5.07;1.05;;;4.20;99.90;;;;;;5160617;27;20042;-76
2023/04/02 06:05:43;;;;;;;7.60;1.63;;;4.20;99.90;;;;;;5163080;27;20144;-76
2023/04/02 06:08:29;;;;;;;7.30;1.10;;;4.30;99.90;;;;;;5162952;27;20438;-76
2023/04/02 06:11:04;;;;;;;3.92;0.90;;;4.10;99.90;;;;;;5162785;27;20449;-76
2023/04/02 06:13:29;;;;;;;6.72;0.98;;;4.10;99.90;;;;;;5162844;27;20074;-76
2023/04/02 06:15:55;;;;;;;6.30;0.82;;;4.20;99.90;;;;;;5162779;27;20082;-76
2023/04/02 06:18:28;;;;;;;4.32;0.95;;;4.40;99.90;;;;;;5162610;27;20051;-76
2023/04/02 06:20:54;;;;;;;7.43;1.40;;;4.50;99.90;;;;;;5162539;27;20067;-76
2023/04/02 06:23:45;;;;;;;6.25;1.25;;;4.60;99.90;;;;;;5162199;27;20405;-76
2023/04/02 06:26:18;;;;;;;7.13;1.15;;;4.50;99.90;;;;;;5162729;27;20066;-75
2023/04/02 06:28:48;;;;;;;4.82;0.95;;;4.70;99.90;;;;;;5162364;27;20042;-75
2023/04/02 06:31:33;;;;;;;4.53;0.80;;;4.60;99.90;;;;;;5162338;27;20329;-75
2023/04/02 06:33:59;;;;;;;7.28;1.33;;;4.50;99.90;;;;;;5162207;27;20109;-76
2023/04/02 06:36:27;;;;;;;5.57;1.00;;;4.80;99.90;;;;;;5162357;27;20531;-76
2023/04/02 06:38:57;;;;;;;6.57;1.25;;;4.90;99.90;;;;;;5162141;27;20034;-75
2023/04/02 06:41:24;;;;;;;5.90;1.00;;;4.90;99.90;;;;;;5161961;27;20030;-76
2023/04/02 06:44:10;;;;;;;8.30;1.30;;;5.00;99.90;;;;;;5162145;27;20087;-76
2023/04/02 06:46:46;;;;;;;4.85;1.08;;;5.00;99.90;;;;;;5144183;27;20349;-76
2023/04/02 06:49:22;;;;;;;5.67;1.20;;;4.90;99.90;;;;;;5162345;27;20050;-75
2023/04/02 06:51:50;;;;;;;5.57;0.85;;;4.90;99.90;;;;;;5126335;27;20484;-76
2023/04/02 06:54:17;;;;;;;6.03;0.85;;;4.90;99.90;;;;;;5162017;27;20314;-76
2023/04/02 06:56:50;;;;;;;6.20;0.88;;;5.10;99.90;;;;;;5161705;27;20361;-76
2023/04/02 06:59:16;;;;;;;6.10;1.15;;;5.10;99.90;;;;;;5161250;27;20487;-76
2023/04/02 07:01:48;;;;;;;5.65;1.70;;;5.00;99.90;;;;;;5161386;27;20051;-76
2023/04/02 07:04:14;;;;;;;3.10;0.65;;;5.00;99.90;;;;;;5161278;27;20084;-76
2023/04/02 07:06:40;;;;;;;3.67;0.63;;;5.00;99.90;;;;;;5142815;27;20129;-75
2023/04/02 07:09:06;;;;;;;7.97;1.05;;;5.00;99.90;;;;;;5142647;27;20125;-69
2023/04/02 07:11:31;;;;;;;3.85;0.80;;;4.90;99.90;;;;;;5161207;27;20087;-68
2023/04/02 07:13:57;;;;;;;8.73;1.50;;;5.00;99.90;;;;;;5160366;27;20030;-69
2023/04/02 07:16:25;;;;;;;3.85;0.70;;;5.10;99.90;;;;;;5160018;27;20066;-71
2023/04/02 07:18:52;;;;;;;5.75;0.90;;;5.20;99.90;;;;;;5141634;27;20394;-68
2023/04/02 07:21:18;;;;;;;5.25;1.13;;;5.30;99.90;;;;;;5141999;27;20443;-68
2023/04/02 07:23:43;;;;;;;3.45;0.73;;;5.40;99.90;;;;;;5160559;27;20030;-68
2023/04/02 07:26:14;;;;;;;2.78;0.65;;;5.30;99.90;;;;;;5160886;27;20376;-68
2023/04/02 07:28:40;;;;;;;5.10;0.77;;;5.30;99.90;;;;;;5160900;27;20034;-67
2023/04/02 07:31:24;;;;;;;4.95;0.68;;;5.20;99.90;;;;;;5160474;27;20423;-68
2023/04/02 07:33:51;;;;;;;5.63;0.88;;;5.20;99.90;;;;;;5160417;27;20080;-68
2023/04/02 07:36:19;;;;;;;11.90;1.40;;;5.50;99.90;;;;;;5160670;27;20046;-69
2023/04/02 07:38:45;;;;;;;6.63;0.98;;;5.80;99.90;;;;;;5160323;27;20041;-69
2023/04/02 07:41:12;;;;;;;6.75;0.90;;;6.00;99.90;;;;;;5160608;27;20034;-68
2023/04/02 07:43:38;;;;;;;6.80;1.02;;;5.90;99.90;;;;;;5160566;27;20038;-68
2023/04/02 07:46:05;;;;;;;5.00;0.73;;;5.90;99.90;;;;;;5160452;27;20041;-68
2023/04/02 07:48:30;;;;;;;4.97;0.98;;;5.70;99.90;;;;;;5142237;27;20373;-67
2023/04/02 07:50:57;;;;;;;4.78;0.65;;;5.70;99.90;;;;;;5160381;27;20113;-67
2023/04/02 07:53:37;;;;;;;4.55;0.85;;;5.70;99.90;;;;;;5160043;27;20039;-67
2023/04/02 07:56:04;;;;;;;4.15;0.80;;;5.60;99.90;;;;;;5141804;27;20407;-69
2023/04/02 07:58:31;;;;;;;4.47;1.00;;;5.70;99.90;;;;;;5141625;27;20045;-68
2023/04/02 08:00:58;;;;;;;4.72;0.95;;;5.90;99.90;;;;;;5159645;27;20511;-68
2023/04/02 08:03:24;;;;;;;3.55;0.70;;;6.20;99.90;;;;;;5159733;27;20077;-68
2023/04/02 08:05:52;;;;;;;5.88;0.80;;;6.40;99.90;;;;;;5141690;27;20412;-68
2023/04/02 08:08:18;;;;;;;8.25;0.90;;;6.30;99.90;;;;;;5160022;27;20049;-69
2023/04/02 08:10:44;;;;;;;5.30;0.85;;;6.00;99.90;;;;;;5160027;27;20046;-68
2023/04/02 08:13:10;;;;;;;5.60;0.98;;;6.00;99.90;;;;;;5159673;27;20043;-68
2023/04/02 08:15:35;;;;;;;3.70;0.80;;;6.30;99.90;;;;;;5141679;27;20118;-68
2023/04/02 08:18:01;;;;;;;5.95;0.93;;;6.40;99.90;;;;;;5141814;27;20093;-69
2023/04/02 08:20:27;;;;;;;6.03;1.00;;;6.60;99.90;;;;;;5159702;27;20057;-69
2023/04/02 08:22:52;;;;;;;5.15;1.00;;;6.80;99.90;;;;;;5149925;27;20507;-68
2023/04/02 08:25:18;;;;;;;5.78;0.90;;;6.70;99.90;;;;;;5152965;27;20037;-68
2023/04/02 08:27:46;;;;;;;7.88;1.05;;;6.70;99.90;;;;;;5159067;27;20323;-68
2023/04/02 08:30:13;;;;;;;6.40;1.25;;;6.70;99.90;;;;;;5159330;27;20050;-68
2023/04/02 08:32:41;;;;;;;5.13;1.00;;;6.60;99.90;;;;;;5158954;27;20098;-68
2023/04/02 08:35:08;;;;;;;5.63;0.90;;;6.60;99.90;;;;;;5159279;27;20046;-69
2023/04/02 08:37:34;;;;;;;5.20;1.00;;;6.60;99.90;;;;;;5128129;27;20043;-69
2023/04/02 08:40:00;;;;;;;4.25;0.93;;;6.50;99.90;;;;;;5138241;27;20050;-68
2023/04/02 08:42:35;;;;;;;6.60;1.10;;;6.70;99.90;;;;;;5138391;27;20066;-68
2023/04/02 08:45:37;;;;;;;5.63;0.90;;;6.80;99.90;;;;;;5138541;27;20355;-68
2023/04/02 08:48:04;;;;;;;6.68;1.10;;;7.10;99.90;;;;;;5139592;27;20035;-69
2023/04/02 08:50:41;;;;;;;5.05;0.80;;;7.20;99.90;;;;;;5091235;27;20414;-71
2023/04/02 08:53:20;;;;;;;4.80;1.08;;;7.20;99.90;;;;;;5143768;27;20467;-71
2023/04/02 08:56:04;;;;;;;6.00;1.13;;;7.40;99.90;;;;;;5139746;27;20647;-72
2023/04/02 08:58:38;;;;;;;3.97;0.90;;;7.50;99.90;;;;;;5138298;27;20071;-68
2023/04/02 09:01:06;;;;;;;3.30;0.98;;;7.50;99.90;;;;;;5137813;27;20054;-68
2023/04/02 09:03:41;;;;;;;3.65;1.05;;;7.50;99.90;;;;;;5137879;27;20050;-69
2023/04/02 09:06:12;;;;;;;4.18;1.02;;;7.70;99.90;;;;;;5138004;27;20035;-68
2023/04/02 09:08:40;;;;;;;5.18;0.90;;;7.80;99.90;;;;;;5119765;27;20432;-68
2023/04/02 09:11:35;;;;;;;3.60;0.95;;;7.70;99.90;;;;;;5154468;27;20085;-69
2023/04/02 09:14:05;;;;;;;6.40;1.08;;;7.70;99.90;;;;;;5137527;27;20447;-68
2023/04/02 09:16:51;;;;;;;6.30;1.10;;;7.90;99.90;;;;;;5158424;27;20049;-69
2023/04/02 09:19:30;;;;;;;3.60;0.90;;;8.40;99.90;;;;;;5158012;27;20045;-69
2023/04/02 09:22:05;;;;;;;5.28;0.90;;;8.40;99.90;;;;;;5158622;27;20033;-68
2023/04/02 09:24:31;;;;;;;6.80;0.80;;;8.50;99.90;;;;;;5158689;27;20038;-68
2023/04/02 09:26:57;;;;;;;5.15;1.00;;;8.50;99.90;;;;;;5158415;27;20438;-69
2023/04/02 09:29:36;;;;;;;4.50;0.88;;;8.70;99.90;;;;;;5158649;27;20391;-69
2023/04/02 09:32:21;;;;;;;6.72;0.90;;;8.70;99.90;;;;;;5158657;27;20167;-68
2023/04/02 09:34:46;;;;;;;2.80;0.60;;;8.90;99.90;;;;;;5158688;27;20141;-68
2023/04/02 09:37:18;;;;;;;3.78;0.73;;;9.00;99.90;;;;;;5157565;27;20463;-69
2023/04/02 09:39:44;;;;;;;5.63;1.02;;;9.20;99.90;;;;;;5158464;27;20039;-68
2023/04/02 09:42:32;;;;;;;3.72;0.90;;;9.20;99.90;;;;;;5140218;27;20471;-68
2023/04/02 09:45:17;;;;;;;5.22;0.90;;;9.10;99.90;;;;;;5158517;27;20328;-68
2023/04/02 09:47:43;;;;;;;6.07;0.80;;;9.20;99.90;;;;;;5158439;27;20038;-67
2023/04/02 09:50:18;;;;;;;3.75;0.80;;;9.30;99.90;;;;;;5139783;27;20376;-68
2023/04/02 09:52:44;;;;;;;3.00;0.80;;;9.30;99.90;;;;;;5158834;27;20038;-67
2023/04/02 09:55:17;;;;;;;2.65;0.70;;;9.30;99.90;;;;;;5158432;27;20393;-68
2023/04/02 09:57:45;;;;;;;5.80;1.00;;;9.50;99.90;;;;;;5158395;27;20043;-68
2023/04/02 10:00:22;;;;;;;3.33;0.85;;;9.70;99.90;;;;;;5157972;27;20055;-68
2023/04/02 10:03:22;;;;;;;5.28;0.57;;;10.00;99.90;;;;;;5139701;27;20046;-69
2023/04/02 10:06:02;;;;;;;7.15;0.70;;;9.80;99.90;;;;;;5158347;27;20027;-68
2023/04/02 10:08:27;;;;;;;2.72;0.73;;;9.70;99.90;;;;;;5158326;27;20031;-68
2023/04/02 10:11:01;;;;;;;4.05;0.98;;;9.80;99.90;;;;;;5158216;27;20372;-68
2023/04/02 10:13:52;;;;;;;3.58;0.70;;;10.10;99.90;;;;;;5155829;27;20053;-68
2023/04/02 10:16:26;;;;;;;4.82;0.95;;;10.30;99.90;;;;;;5157913;27;20046;-70
2023/04/02 10:19:12;;;;;;;4.00;0.60;;;10.30;99.90;;;;;;5157881;27;20038;-71
2023/04/02 10:21:40;;;;;;;3.80;0.60;;;10.30;99.90;;;;;;5158132;27;20073;-68
2023/04/02 10:24:13;;;;;;;4.00;0.80;;;10.60;99.90;;;;;;5158152;27;20042;-71
2023/04/02 10:27:11;;;;;;;4.22;0.90;;;10.50;99.90;;;;;;5158116;27;20034;-71
2023/04/02 10:30:00;;;;;;;4.55;0.85;;;10.50;99.90;;;;;;5101108;27;20064;-70
2023/04/02 10:32:50;;;;;;;3.13;0.60;;;10.90;99.90;;;;;;5157720;27;20113;-71
2023/04/02 10:35:26;;;;;;;4.30;0.63;;;11.10;99.90;;;;;;5158068;27;20107;-70
2023/04/02 10:37:58;;;;;;;;;;;11.00;99.90;;;;;;5157878;27;20047;-69
2023/04/02 10:40:33;;;;;;;5.97;0.90;;;11.40;99.90;;;;;;5122378;27;19944;-68
2023/04/02 10:43:02;;;;;;;2.87;0.50;;;11.60;99.90;;;;;;5139751;27;20039;-70
2023/04/02 10:45:49;;;;;;;4.90;0.80;;;11.80;99.90;;;;;;5157872;27;20046;-70
2023/04/02 10:48:21;;;;;;;5.60;0.85;;;12.00;99.90;;;;;;5159383;27;20049;-74
2023/04/02 10:50:55;;;;;;;3.08;0.65;;;11.50;99.90;;;;;;5143338;27;20099;-74
2023/04/02 10:53:36;;;;;;;3.08;0.60;;;11.00;99.90;;;;;;5161290;27;20449;-73
2023/04/02 10:56:08;;;;;;;4.22;0.70;;;10.60;99.90;;;;;;5142926;27;20098;-68
2023/04/02 10:58:42;;;;;;;2.35;0.47;;;10.50;99.90;;;;;;5142852;27;20045;-69
2023/04/02 11:01:15;;;;;;;3.05;0.40;;;11.10;99.90;;;;;;5125353;27;20059;-69
2023/04/02 11:04:01;;;;;;;2.50;0.65;;;11.60;99.90;;;;;;5161026;27;20043;-70
2023/04/02 11:06:49;;;;;;;16.38;1.10;;;11.80;99.90;;;;;;5143019;27;20031;-69
2023/04/02 11:09:20;;;;;;;3.67;0.50;;;12.30;99.90;;;;;;5161225;27;20039;-69
2023/04/02 11:11:50;;;;;;;5.68;0.85;;;12.60;99.90;;;;;;5125489;27;20038;-70
2023/04/02 11:14:26;;;;;;;3.22;0.70;;;12.70;99.90;;;;;;5161198;27;20035;-69
2023/04/02 11:16:55;;;;;;;2.97;0.65;;;12.40;99.90;;;;;;5161194;27;20050;-70
2023/04/02 11:19:29;;;;;;;5.68;0.70;;;12.60;99.90;;;;;;5160917;27;20053;-70
2023/04/02 11:22:17;;;;;;;5.15;0.70;;;12.60;99.90;;;;;;5160924;27;20092;-70
2023/04/02 11:24:48;;;;;;;4.20;0.52;;;12.70;99.90;;;;;;5160702;27;20087;-70
2023/04/02 11:27:24;;;;;;;1.30;0.38;;;13.20;99.90;;;;;;5160671;27;20042;-70
2023/04/02 11:29:50;;;;;;;;;;;13.30;99.90;;;;;;5161485;27;20049;-70
2023/04/02 11:32:27;;;;;;;3.80;0.60;;;13.00;99.90;;;;;;5160662;27;19915;-71
2023/04/02 11:34:53;;;;;;;2.13;0.40;;;13.20;99.90;;;;;;5160370;27;20037;-77
2023/04/02 11:37:38;;;;;;;3.38;0.52;;;13.70;99.90;;;;;;5142217;27;20125;-77
2023/04/02 11:40:10;;;;;;;5.38;0.50;;;13.20;99.90;;;;;;5125162;27;20335;-77
2023/04/02 11:42:39;;;;;;;4.65;0.60;;;13.00;99.90;;;;;;5142482;27;20042;-81
2023/04/02 11:45:20;;;;;;;1.90;0.43;;;12.90;99.90;;;;;;5108283;27;20042;-76
2023/04/02 11:48:02;;;;;;;3.28;0.60;;;12.80;99.90;;;;;;5141938;27;20427;-70
2023/04/02 11:50:38;;;;;;;1.27;0.63;;;13.00;99.90;;;;;;5124989;27;20428;-69
2023/04/02 11:53:18;;;;;;;;;;;13.20;99.90;;;;;;5160942;27;20117;-69
2023/04/02 11:56:05;;;;;;;2.03;0.50;;;13.50;99.90;;;;;;5160426;27;19915;-74
2023/04/02 11:58:49;;;;;;;6.30;0.60;;;13.70;99.90;;;;;;5159304;27;20133;-74
2023/04/02 12:01:32;;;;;;;2.92;0.50;;;13.90;99.90;;;;;;5123849;27;20055;-74
2023/04/02 12:04:13;;;;;;;8.32;0.70;;;13.90;99.90;;;;;;5141166;27;20054;-75
2023/04/02 12:06:45;;;;;;;2.33;0.40;;;13.70;99.90;;;;;;5141490;27;20039;-75
2023/04/02 12:09:23;;;;;;;3.10;0.60;;;13.70;99.90;;;;;;5160122;27;20043;-74
2023/04/02 12:11:55;;;;;;;2.42;0.43;;;13.70;99.90;;;;;;5141858;27;20091;-74
2023/04/02 12:14:42;;;;;;;4.68;0.68;;;13.40;99.90;;;;;;5124219;27;20091;-72
2023/04/02 12:17:26;;;;;;;;;;;13.40;99.90;;;;;;5160412;27;20110;-70
2023/04/02 12:19:55;;;;;;;1.90;0.35;;;13.60;99.90;;;;;;5159821;27;19919;-70
2023/04/02 12:22:27;;;;;;;3.10;0.70;;;13.60;99.90;;;;;;5159734;27;20038;-71
2023/04/02 12:25:03;;;;;;;2.30;0.47;;;13.90;99.90;;;;;;5159515;27;20436;-70
2023/04/02 12:27:29;;;;;;;;;;;13.90;99.90;;;;;;5160249;27;20039;-71
2023/04/02 12:30:10;;;;;;;2.13;0.50;;;14.10;99.90;;;;;;5159473;27;19919;-75
2023/04/02 12:32:36;;;;;;;5.85;0.55;;;13.60;99.90;;;;;;5159197;27;20114;-71
2023/04/02 12:35:03;;;;;;;2.53;0.50;;;13.60;99.90;;;;;;5104362;27;20164;-72
2023/04/02 12:37:29;;;;;;;4.60;0.40;;;14.10;99.90;;;;;;5154310;27;20436;-71
2023/04/02 12:40:02;;;;;;;9.25;0.73;;;14.40;99.90;;;;;;5156436;27;20073;-72
2023/04/02 12:42:33;;;;;;;16.67;0.80;;;15.00;99.90;;;;;;5141985;27;20459;-72
2023/04/02 12:45:00;;;;;;;9.73;0.43;;;15.00;99.90;;;;;;5156744;27;20155;-72
2023/04/02 12:47:27;;;;;;;7.22;0.60;;;14.60;99.90;;;;;;5157843;27;20031;-70
2023/04/02 12:49:55;;;;;;;2.42;0.43;;;14.50;99.90;;;;;;5159373;27;20042;-70
2023/04/02 12:52:23;;;;;;;4.57;0.63;;;14.50;99.90;;;;;;5159253;27;20103;-70
2023/04/02 12:54:52;;;;;;;2.40;0.57;;;15.00;99.90;;;;;;5159210;27;20094;-70
2023/04/02 12:57:27;;;;;;;2.58;0.60;;;15.20;99.90;;;;;;5159224;27;20384;-69
2023/04/02 12:59:55;;;;;;;1.50;0.30;;;15.50;99.90;;;;;;5119333;27;21788;-70
2023/04/02 13:02:22;;;;;;;5.85;0.90;;;15.60;99.90;;;;;;5149464;27;20039;-70
2023/04/02 13:04:53;;;;;;;1.67;0.55;;;15.90;99.90;;;;;;5138064;27;20131;-69
2023/04/02 13:07:22;;;;;;;2.08;0.35;;;15.60;99.90;;;;;;5102523;27;20039;-69
2023/04/02 13:09:51;;;;;;;7.13;0.63;;;15.90;99.90;;;;;;5138051;27;20092;-68
2023/04/02 13:12:32;;;;;;;11.73;1.63;;;15.40;99.90;;;;;;5135082;27;20486;-68
2023/04/02 13:15:00;;;;;;;1.85;0.47;;;14.90;99.90;;;;;;5140221;27;20415;-68
2023/04/02 13:17:40;;;;;;;5.38;0.70;;;15.10;99.90;;;;;;5140243;27;20042;-68
2023/04/02 13:20:34;;;;;;;3.55;0.60;;;15.60;99.90;;;;;;5158767;27;20074;-68
2023/04/02 13:23:19;;;;;;;3.20;0.40;;;15.50;99.90;;;;;;5140400;27;20046;-68
2023/04/02 13:25:45;;;;;;;2.92;0.60;;;15.70;99.90;;;;;;5158443;27;20034;-68
2023/04/02 13:28:10;;;;;;;2.88;0.50;;;15.80;99.90;;;;;;5132395;27;20171;-68
2023/04/02 13:30:36;;;;;;;1.10;0.30;;;16.10;99.90;;;;;;5147250;27;20062;-68
2023/04/02 13:33:02;;;;;;;3.20;0.60;;;16.10;99.90;;;;;;5157997;27;20119;-69
2023/04/02 13:35:27;;;;;;;2.72;0.40;;;15.70;99.90;;;;;;5123538;27;20038;-68
2023/04/02 13:37:53;;;;;;;1.67;0.35;;;15.40;99.90;;;;;;5137643;27;20039;-68